This is the latest recevied weather packets stored in our database for station/object K6LCM-13. If no packets are shown the sender has not sent any weather packets the latest 10 day(s).
| Time | Temp. | Humidity | Pressure | Rain* | Wind** | Luminosity | Snow |
|---|---|---|---|---|---|---|---|
| 1777894838 | 13.33° C | 70% | 1013.8 hPa | 0 mm | - | - | - |
| 1777894298 | 13.33° C | 70% | 1013.7 hPa | 0 mm | - | - | - |
| 1777893759 | 13.33° C | 71% | 1013.9 hPa | 0 mm | - | - | - |
| 1777893218 | 12.78° C | 72% | 1013.7 hPa | 0 mm | - | - | - |
| 1777892678 | 12.22° C | 75% | 1013.8 hPa | 0 mm | - | - | - |
| 1777892139 | 12.22° C | 76% | 1014 hPa | 0 mm | - | - | - |
| 1777891598 | 12.22° C | 78% | 1014 hPa | 0 mm | - | - | - |
| 1777891058 | 12.78° C | 78% | 1014 hPa | 0 mm | - | - | - |
| 1777890518 | 12.78° C | 78% | 1014 hPa | 0 mm | - | - | - |
| 1777889978 | 12.78° C | 78% | 1013.9 hPa | 0 mm | - | - | - |
| 1777889439 | 12.78° C | 77% | 1014 hPa | 0 mm | - | - | - |
| 1777888898 | 12.78° C | 76% | 1014.3 hPa | 0 mm | - | - | - |
| 1777888358 | 12.78° C | 75% | 1014.3 hPa | 0 mm | - | - | - |
| 1777887818 | 12.78° C | 74% | 1014.3 hPa | 0 mm | - | - | - |
| 1777887278 | 12.78° C | 72% | 1014.3 hPa | 0 mm | - | - | - |
| 1777886738 | 13.33° C | 71% | 1014.3 hPa | 0 mm | - | - | - |
| 1777886198 | 13.33° C | 71% | 1014 hPa | 0 mm | - | - | - |
| 1777885658 | 13.33° C | 71% | 1014.3 hPa | 0 mm | - | - | - |
| 1777885118 | 13.33° C | 71% | 1014.5 hPa | 0 mm | - | - | - |
| 1777884578 | 13.33° C | 71% | 1014.8 hPa | 0 mm | - | - | - |
| 1777884038 | 13.33° C | 71% | 1014.8 hPa | 0 mm | - | - | - |
| 1777883499 | 13.89° C | 70% | 1014.7 hPa | 0 mm | - | - | - |
| 1777882958 | 13.33° C | 73% | 1015 hPa | 0 mm | - | - | - |
| 1777882418 | 13.89° C | 73% | 1015.1 hPa | 0 mm | - | - | - |
| 1777881879 | 13.89° C | 74% | 1015.3 hPa | 0 mm | - | - | - |
* Rain latest hour (hover to see other rain measurements)
** Current wind speed in m/s (hover to see current wind gust speed)